createdAt,value
2018-08-19T00:00:43.748Z,4.30
2018-08-19T00:02:47.774Z,6.07
2018-08-19T00:05:06.084Z,4.20
2018-08-19T00:07:11.542Z,3.50
2018-08-19T00:09:16.850Z,5.23
2018-08-19T00:11:21.853Z,2.37
2018-08-19T00:13:25.942Z,3.33
2018-08-19T00:15:30.902Z,3.73
2018-08-19T00:17:35.565Z,3.30
2018-08-19T00:19:39.587Z,3.67
2018-08-19T00:21:43.737Z,6.60
2018-08-19T00:23:49.025Z,3.80
2018-08-19T00:25:57.082Z,2.90
2018-08-19T00:28:01.215Z,4.33
2018-08-19T00:30:08.044Z,5.07
2018-08-19T00:32:13.194Z,3.43
2018-08-19T00:34:21.901Z,3.50
2018-08-19T00:36:33.098Z,4.27
2018-08-19T00:38:37.079Z,3.27
2018-08-19T00:40:42.057Z,3.13
2018-08-19T00:42:47.348Z,4.67
2018-08-19T00:44:51.930Z,4.67
2018-08-19T00:46:56.932Z,4.53
2018-08-19T00:49:01.950Z,3.70
2018-08-19T00:51:05.897Z,5.03
2018-08-19T00:53:12.447Z,3.10
2018-08-19T00:55:17.622Z,2.67
2018-08-19T00:57:21.776Z,5.77
2018-08-19T00:59:29.026Z,4.13
2018-08-19T01:01:37.455Z,3.37
2018-08-19T01:03:53.339Z,3.60
2018-08-19T01:05:59.336Z,6.00
2018-08-19T01:08:05.126Z,3.53
2018-08-19T01:10:09.277Z,3.53
2018-08-19T01:12:14.023Z,5.50
2018-08-19T01:14:18.627Z,5.47
2018-08-19T01:16:22.956Z,6.00
2018-08-19T01:18:27.214Z,4.00
2018-08-19T01:20:32.091Z,3.83
2018-08-19T01:22:38.851Z,3.90
2018-08-19T01:24:43.442Z,5.97
2018-08-19T01:26:48.853Z,6.50
2018-08-19T01:28:56.681Z,4.57
2018-08-19T01:31:01.777Z,4.87
2018-08-19T01:33:05.908Z,4.33
2018-08-19T01:35:09.861Z,4.67
2018-08-19T01:37:15.811Z,4.43
2018-08-19T01:39:22.799Z,6.40
2018-08-19T01:41:27.309Z,4.80
2018-08-19T01:43:32.943Z,4.30
2018-08-19T01:45:37.030Z,9.83
2018-08-19T01:47:41.689Z,5.10
2018-08-19T01:49:47.414Z,4.43
2018-08-19T01:51:51.475Z,5.67
2018-08-19T01:53:55.828Z,3.67
2018-08-19T01:55:59.939Z,6.70
2018-08-19T01:58:04.253Z,6.00
2018-08-19T02:00:13.332Z,6.17
2018-08-19T02:02:18.673Z,5.90
2018-08-19T02:04:23.155Z,9.40
2018-08-19T02:06:29.480Z,4.90
2018-08-19T02:08:39.104Z,5.43
2018-08-19T02:10:43.130Z,3.60
2018-08-19T02:12:47.204Z,4.73
2018-08-19T02:14:51.595Z,9.53
2018-08-19T02:16:56.873Z,5.20
2018-08-19T02:19:01.012Z,4.90
2018-08-19T02:21:05.655Z,5.23
2018-08-19T02:23:11.139Z,5.70
2018-08-19T02:25:15.821Z,4.53
2018-08-19T02:27:19.844Z,4.30
2018-08-19T02:29:37.350Z,8.63
2018-08-19T02:31:42.749Z,6.13
2018-08-19T02:33:46.819Z,5.47
2018-08-19T02:35:55.170Z,5.33
2018-08-19T02:37:59.204Z,6.17
2018-08-19T02:40:05.374Z,4.27
2018-08-19T02:42:24.054Z,5.80
2018-08-19T02:44:28.652Z,5.23
2018-08-19T02:46:32.993Z,3.23
2018-08-19T02:48:45.902Z,4.53
2018-08-19T02:51:00.172Z,3.53
2018-08-19T02:53:06.396Z,4.40
2018-08-19T02:55:10.348Z,4.47
2018-08-19T02:57:14.872Z,6.80
2018-08-19T02:59:19.178Z,4.67
2018-08-19T03:01:23.099Z,3.10
2018-08-19T03:03:27.096Z,6.60
2018-08-19T03:05:33.074Z,5.43
2018-08-19T03:07:38.031Z,5.27
2018-08-19T03:09:42.171Z,4.43
2018-08-19T03:11:49.305Z,5.17
2018-08-19T03:13:53.324Z,5.70
2018-08-19T03:15:57.982Z,3.67
2018-08-19T03:18:05.901Z,6.00
2018-08-19T03:20:14.135Z,5.13
2018-08-19T03:22:18.368Z,4.13
2018-08-19T03:24:22.450Z,3.90
2018-08-19T03:26:30.544Z,3.73
2018-08-19T03:28:34.603Z,3.37
2018-08-19T03:30:40.804Z,7.87
2018-08-19T03:32:50.635Z,4.07
2018-08-19T03:35:34.243Z,3.37
2018-08-19T03:37:39.410Z,3.90
2018-08-19T03:39:45.733Z,6.57
2018-08-19T03:41:50.332Z,4.30
2018-08-19T03:43:58.660Z,3.80
2018-08-19T03:46:08.611Z,8.43
2018-08-19T03:48:12.674Z,6.67
2018-08-19T03:50:26.653Z,5.97
2018-08-19T03:52:30.703Z,4.70
2018-08-19T03:54:34.726Z,9.47
2018-08-19T03:56:39.859Z,3.97
2018-08-19T03:58:44.769Z,5.73
2018-08-19T04:00:49.877Z,4.20
2018-08-19T04:02:53.768Z,4.97
2018-08-19T04:04:58.644Z,6.80
2018-08-19T04:07:03.287Z,4.77
2018-08-19T04:09:08.387Z,5.53
2018-08-19T04:11:15.673Z,5.10
2018-08-19T04:13:43.537Z,8.33
2018-08-19T04:15:48.226Z,4.27
2018-08-19T04:17:54.008Z,4.80
2018-08-19T04:20:00.792Z,8.27
2018-08-19T04:22:06.969Z,4.27
2018-08-19T04:24:18.600Z,8.57
2018-08-19T04:26:23.037Z,4.77
2018-08-19T04:28:27.864Z,6.23
2018-08-19T04:30:32.869Z,8.17
2018-08-19T04:32:38.229Z,4.27
2018-08-19T04:34:47.811Z,6.23
2018-08-19T04:36:53.595Z,7.37
2018-08-19T04:38:58.884Z,4.77
2018-08-19T04:41:07.260Z,6.43
2018-08-19T04:43:15.244Z,7.10
2018-08-19T04:45:25.410Z,6.30
2018-08-19T04:50:03.232Z,5.13
2018-08-19T04:52:11.059Z,7.57
2018-08-19T04:54:15.808Z,6.23
2018-08-19T04:56:26.411Z,4.57
2018-08-19T04:58:33.643Z,4.10
2018-08-19T05:00:42.045Z,5.57
2018-08-19T05:02:49.304Z,3.60
2018-08-19T05:04:55.759Z,6.13
2018-08-19T05:07:04.747Z,7.10
2018-08-19T05:09:13.367Z,4.93
2018-08-19T05:11:18.473Z,5.30
2018-08-19T05:13:26.377Z,6.27
2018-08-19T05:15:35.416Z,6.07
2018-08-19T05:17:44.097Z,5.50
2018-08-19T05:19:52.139Z,6.73
2018-08-19T05:22:04.505Z,6.13
2018-08-19T05:24:12.916Z,6.53
2018-08-19T05:26:18.845Z,8.37
2018-08-19T05:28:26.212Z,5.17
2018-08-19T05:30:35.145Z,4.27
2018-08-19T05:32:49.401Z,10.23
2018-08-19T05:34:58.015Z,5.80
2018-08-19T05:37:04.936Z,4.77
2018-08-19T05:39:11.876Z,4.97
2018-08-19T05:41:18.617Z,6.77
2018-08-19T05:43:25.000Z,5.73
2018-08-19T05:45:32.644Z,7.57
2018-08-19T05:47:41.032Z,5.90
2018-08-19T05:49:51.860Z,6.80
2018-08-19T05:52:05.258Z,3.97
2018-08-19T05:54:11.579Z,8.20
2018-08-19T05:56:20.183Z,6.57
2018-08-19T05:58:27.140Z,6.70
2018-08-19T06:00:35.322Z,8.20
2018-08-19T06:02:45.599Z,4.23
2018-08-19T06:04:53.345Z,4.17
2018-08-19T06:07:06.102Z,8.33
2018-08-19T06:09:13.914Z,8.00
2018-08-19T06:11:21.416Z,6.43
2018-08-19T06:13:31.748Z,6.40
2018-08-19T06:15:38.156Z,5.50
2018-08-19T06:17:46.352Z,5.70
2018-08-19T06:19:54.237Z,4.93
2018-08-19T06:22:01.973Z,6.40
2018-08-19T06:24:09.500Z,4.00
2018-08-19T06:26:22.210Z,5.57
2018-08-19T06:28:29.309Z,5.67
2018-08-19T06:30:40.163Z,3.63
2018-08-19T06:32:53.346Z,5.60
2018-08-19T06:35:01.514Z,6.63
2018-08-19T06:37:09.875Z,4.53
2018-08-19T06:39:16.398Z,4.13
2018-08-19T06:41:23.226Z,4.20
2018-08-19T06:43:30.137Z,5.57
2018-08-19T06:45:37.476Z,6.03
2018-08-19T06:47:49.560Z,5.13
2018-08-19T06:50:00.271Z,5.65
2018-08-19T06:52:07.502Z,5.43
2018-08-19T06:54:18.047Z,7.95
2018-08-19T06:56:26.471Z,4.90
2018-08-19T06:58:33.599Z,5.80
2018-08-19T07:00:48.228Z,3.77
2018-08-19T07:02:59.224Z,8.58
2018-08-19T07:05:08.232Z,4.60
2018-08-19T07:07:19.390Z,6.22
2018-08-19T07:09:29.629Z,5.53
2018-08-19T07:11:37.236Z,11.10
2018-08-19T07:13:46.350Z,4.53
2018-08-19T07:15:55.407Z,5.17
2018-08-19T07:18:05.372Z,5.80
2018-08-19T07:20:20.575Z,8.23
2018-08-19T07:22:34.022Z,5.67
2018-08-19T07:24:42.693Z,5.87
2018-08-19T07:26:55.761Z,4.87
2018-08-19T07:29:07.737Z,5.35
2018-08-19T07:31:17.013Z,6.28
2018-08-19T07:33:32.508Z,6.65
2018-08-19T07:35:40.080Z,6.78
2018-08-19T07:37:47.168Z,6.95
2018-08-19T07:39:54.563Z,4.80
2018-08-19T07:42:01.699Z,6.67
2018-08-19T07:44:09.067Z,7.67
2018-08-19T07:46:22.279Z,9.45
2018-08-19T07:48:32.775Z,5.65
2018-08-19T07:50:40.756Z,4.58
2018-08-19T07:52:49.903Z,5.78
2018-08-19T07:54:58.669Z,5.17
2018-08-19T07:57:14.706Z,4.92
2018-08-19T07:59:21.629Z,7.20
2018-08-19T08:01:29.757Z,5.80
2018-08-19T08:03:39.490Z,4.62
2018-08-19T08:05:51.072Z,7.85
2018-08-19T08:07:59.100Z,4.67
2018-08-19T08:10:06.412Z,5.75
2018-08-19T08:12:26.640Z,4.78
2018-08-19T08:14:38.200Z,5.37
2018-08-19T08:16:55.994Z,4.35
2018-08-19T08:19:08.612Z,6.70
2018-08-19T08:21:17.546Z,5.58
2018-08-19T08:23:30.346Z,5.10
2018-08-19T08:25:40.751Z,7.22
2018-08-19T08:27:50.963Z,7.85
2018-08-19T08:30:01.244Z,6.65
2018-08-19T08:32:11.355Z,6.55
2018-08-19T08:34:18.945Z,7.60
2018-08-19T08:36:26.683Z,5.03
2018-08-19T08:38:34.002Z,7.47
2018-08-19T08:40:42.165Z,4.60
2018-08-19T08:42:50.497Z,6.40
2018-08-19T08:44:58.538Z,6.35
2018-08-19T08:47:15.401Z,4.97
2018-08-19T08:49:22.770Z,7.80
2018-08-19T08:51:30.085Z,5.25
2018-08-19T08:53:42.710Z,9.10
2018-08-19T08:55:49.616Z,7.53
2018-08-19T08:58:00.978Z,5.78
2018-08-19T09:00:24.537Z,8.15
2018-08-19T09:02:32.246Z,7.87
2018-08-19T09:04:38.547Z,7.28
2018-08-19T09:06:45.251Z,5.78
2018-08-19T09:08:52.665Z,7.10
2018-08-19T09:11:17.241Z,8.28
2018-08-19T09:13:28.253Z,7.20
2018-08-19T09:15:47.937Z,9.70
2018-08-19T09:18:04.879Z,7.70
2018-08-19T09:20:18.705Z,8.00
2018-08-19T09:22:26.148Z,6.95
2018-08-19T09:24:35.292Z,6.97
2018-08-19T09:27:11.381Z,8.35
2018-08-19T09:31:40.793Z,6.40
2018-08-19T09:36:30.722Z,6.60
2018-08-19T09:38:46.979Z,7.67
2018-08-19T09:41:04.908Z,7.15
2018-08-19T09:43:16.641Z,5.25
2018-08-19T09:45:35.478Z,6.58
2018-08-19T09:47:46.220Z,6.65
2018-08-19T09:49:57.790Z,6.70
2018-08-19T09:52:06.332Z,5.40
2018-08-19T09:54:21.442Z,7.03
2018-08-19T09:56:43.756Z,9.60
2018-08-19T09:58:59.626Z,7.62
2018-08-19T10:03:41.106Z,7.15
2018-08-19T10:06:01.369Z,10.28
2018-08-19T10:08:20.539Z,5.87
2018-08-19T10:10:32.463Z,5.15
2018-08-19T10:12:43.371Z,6.03
2018-08-19T10:14:56.713Z,4.40
2018-08-19T10:17:06.680Z,6.10
2018-08-19T10:19:14.976Z,3.92
2018-08-19T10:21:29.166Z,9.93
2018-08-19T10:23:41.489Z,5.33
2018-08-19T10:25:50.121Z,5.45
2018-08-19T10:27:58.791Z,6.53
2018-08-19T10:30:20.775Z,5.35
2018-08-19T10:32:30.223Z,3.98
2018-08-19T10:34:43.575Z,7.87
2018-08-19T10:36:55.766Z,5.85
2018-08-19T10:39:02.384Z,4.95
2018-08-19T10:41:11.062Z,5.15
2018-08-19T10:43:27.373Z,4.12
2018-08-19T10:46:03.413Z,2.87
2018-08-19T10:48:16.652Z,3.33
2018-08-19T10:50:39.738Z,4.58
2018-08-19T10:52:47.780Z,5.35
2018-08-19T10:54:56.247Z,2.15
2018-08-19T10:57:16.467Z,5.75
2018-08-19T10:59:30.959Z,4.67
2018-08-19T11:01:42.039Z,3.37
2018-08-19T11:04:26.618Z,2.98
2018-08-19T11:06:52.084Z,6.92
2018-08-19T11:09:14.834Z,3.15
2018-08-19T11:11:21.765Z,4.40
2018-08-19T11:13:31.395Z,4.45
2018-08-19T11:15:54.790Z,3.65
2018-08-19T11:18:24.410Z,3.10
2018-08-19T11:20:37.657Z,3.35
2018-08-19T11:22:48.413Z,3.60
2018-08-19T11:24:59.206Z,4.67
2018-08-19T11:27:07.856Z,3.95
2018-08-19T11:29:15.104Z,5.15
2018-08-19T11:31:29.436Z,4.80
2018-08-19T11:33:50.822Z,3.72
2018-08-19T11:35:58.563Z,3.05
2018-08-19T11:38:07.857Z,4.12
2018-08-19T11:40:20.261Z,10.03
2018-08-19T11:42:26.624Z,3.50
2018-08-19T11:44:37.309Z,4.22
2018-08-19T11:46:46.087Z,4.75
2018-08-19T11:49:02.076Z,3.87
2018-08-19T11:51:11.061Z,6.08
2018-08-19T11:53:18.880Z,4.70
2018-08-19T11:55:28.978Z,5.17
2018-08-19T11:57:35.607Z,5.67
2018-08-19T11:59:46.980Z,3.05
2018-08-19T12:01:54.191Z,5.53
2018-08-19T12:04:11.326Z,4.40
2018-08-19T12:06:19.098Z,4.95
2018-08-19T12:08:28.119Z,2.98
2018-08-19T12:10:35.170Z,4.28
2018-08-19T12:12:52.599Z,5.78
2018-08-19T12:17:23.374Z,3.27
2018-08-19T12:19:32.971Z,4.35
2018-08-19T12:21:45.430Z,4.62
2018-08-19T12:23:55.149Z,4.87
2018-08-19T12:26:08.519Z,3.55
2018-08-19T12:28:19.314Z,2.72
2018-08-19T12:30:25.474Z,3.08
2018-08-19T12:32:30.794Z,3.30
2018-08-19T12:34:39.313Z,3.75
2018-08-19T12:36:52.232Z,3.00
2018-08-19T12:39:05.607Z,2.95
2018-08-19T12:41:17.616Z,2.90
2018-08-19T12:43:26.317Z,2.67
2018-08-19T12:45:37.509Z,3.10
2018-08-19T12:47:44.383Z,4.33
2018-08-19T12:49:58.640Z,2.75
2018-08-19T12:52:08.928Z,3.65
2018-08-19T12:54:18.314Z,2.25
2018-08-19T12:56:28.019Z,3.50
2018-08-19T12:58:37.352Z,2.50
2018-08-19T13:00:48.232Z,4.28
2018-08-19T13:02:57.447Z,2.90
2018-08-19T13:05:05.422Z,2.40
2018-08-19T13:07:28.087Z,2.20
2018-08-19T13:09:34.222Z,2.83
2018-08-19T13:11:43.369Z,1.87
2018-08-19T13:13:49.892Z,3.62
2018-08-19T13:15:58.829Z,3.85
2018-08-19T13:18:07.174Z,5.70
2018-08-19T13:20:16.705Z,3.10
2018-08-19T13:22:33.435Z,3.67
2018-08-19T13:24:47.134Z,3.58
2018-08-19T13:26:56.945Z,6.35
2018-08-19T13:29:08.765Z,3.75
2018-08-19T13:31:19.918Z,3.80
2018-08-19T13:33:32.514Z,3.90
2018-08-19T13:35:38.854Z,2.52
2018-08-19T13:37:45.330Z,3.17
2018-08-19T13:39:54.244Z,5.33
2018-08-19T13:42:01.455Z,3.62
2018-08-19T13:44:08.587Z,6.58
2018-08-19T13:46:20.343Z,2.98
2018-08-19T13:48:27.019Z,3.85
2018-08-19T13:50:41.140Z,4.08
2018-08-19T13:52:53.671Z,2.22
2018-08-19T13:55:05.106Z,1.95
2018-08-19T13:57:14.904Z,2.70
2018-08-19T13:59:19.679Z,2.60
2018-08-19T14:01:25.232Z,3.00
2018-08-19T14:03:31.779Z,4.40
2018-08-19T14:05:38.789Z,2.70
2018-08-19T14:07:51.881Z,2.80
2018-08-19T14:10:02.353Z,3.08
2018-08-19T14:12:12.475Z,2.98
2018-08-19T14:14:22.991Z,3.08
2018-08-19T14:16:32.022Z,2.50
2018-08-19T14:18:43.114Z,3.85
2018-08-19T14:20:50.437Z,3.40
2018-08-19T14:22:59.782Z,3.75
2018-08-19T14:25:15.354Z,3.62
2018-08-19T14:27:25.398Z,2.12
2018-08-19T14:29:36.309Z,3.87
2018-08-19T14:31:51.184Z,2.75
2018-08-19T14:33:57.931Z,3.12
2018-08-19T14:36:13.985Z,2.12
2018-08-19T14:38:19.676Z,2.92
2018-08-19T14:40:26.073Z,2.58
2018-08-19T14:42:34.389Z,4.65
2018-08-19T14:44:39.056Z,3.92
2018-08-19T14:46:46.706Z,2.35
2018-08-19T14:49:02.518Z,3.92
2018-08-19T14:51:09.382Z,2.85
2018-08-19T14:53:14.353Z,2.72
2018-08-19T14:55:21.627Z,2.52
2018-08-19T14:57:30.072Z,2.30
2018-08-19T14:59:41.078Z,3.17
2018-08-19T15:01:48.420Z,4.58
2018-08-19T15:04:01.537Z,2.60
2018-08-19T15:06:11.998Z,2.50
2018-08-19T15:08:22.054Z,5.92
2018-08-19T15:10:27.713Z,2.58
2018-08-19T15:12:33.554Z,3.25
2018-08-19T15:14:40.685Z,2.45
2018-08-19T15:16:56.599Z,4.10
2018-08-19T15:19:08.559Z,3.83
2018-08-19T15:21:19.067Z,3.20
2018-08-19T15:23:24.904Z,3.27
2018-08-19T15:25:31.759Z,3.52
2018-08-19T15:27:41.160Z,2.80
2018-08-19T15:29:50.358Z,3.72
2018-08-19T15:31:59.201Z,2.65
2018-08-19T15:34:06.248Z,2.20
2018-08-19T15:36:14.033Z,2.92
2018-08-19T15:38:20.295Z,3.98
2018-08-19T15:40:41.450Z,2.50
2018-08-19T15:42:52.769Z,2.92
2018-08-19T15:45:00.487Z,3.08
2018-08-19T15:47:06.626Z,7.58
2018-08-19T15:49:13.370Z,3.33
2018-08-19T15:51:22.233Z,3.42
2018-08-19T15:55:53.896Z,5.35
2018-08-19T15:58:08.104Z,3.40
2018-08-19T16:00:21.960Z,2.27
2018-08-19T16:02:28.327Z,2.42
2018-08-19T16:04:40.108Z,5.45
2018-08-19T16:06:46.264Z,2.95
2018-08-19T16:08:51.391Z,3.05
2018-08-19T16:11:00.238Z,2.60
2018-08-19T16:13:10.744Z,3.08
2018-08-19T16:15:22.071Z,1.98
2018-08-19T16:17:29.237Z,1.85
2018-08-19T16:19:35.526Z,3.05
2018-08-19T16:21:42.790Z,2.20
2018-08-19T16:23:49.978Z,3.15
2018-08-19T16:25:59.085Z,2.08
2018-08-19T16:28:06.571Z,3.08
2018-08-19T16:30:16.844Z,2.72
2018-08-19T16:32:24.086Z,4.12
2018-08-19T16:34:33.680Z,2.70
2018-08-19T16:36:42.690Z,3.15
2018-08-19T16:38:49.505Z,3.40
2018-08-19T16:40:57.838Z,3.58
2018-08-19T16:43:04.190Z,2.72
2018-08-19T16:45:15.485Z,2.83
2018-08-19T16:47:22.205Z,4.28
2018-08-19T16:49:28.563Z,2.42
2018-08-19T16:51:35.721Z,2.87
2018-08-19T16:53:44.566Z,3.25
2018-08-19T16:55:53.614Z,2.87
2018-08-19T16:58:01.975Z,4.20
2018-08-19T17:00:09.323Z,3.72
2018-08-19T17:02:15.415Z,3.25
2018-08-19T17:04:22.397Z,5.72
2018-08-19T17:06:31.897Z,3.33
2018-08-19T17:08:39.279Z,2.58
2018-08-19T17:10:49.742Z,3.65
2018-08-19T17:12:57.524Z,4.92
2018-08-19T17:17:35.522Z,2.20
2018-08-19T17:21:56.754Z,3.50
2018-08-19T17:24:03.767Z,3.25
2018-08-19T17:26:17.587Z,4.50
2018-08-19T17:28:28.194Z,3.80
2018-08-19T17:30:38.215Z,4.92
2018-08-19T17:32:48.609Z,4.45
2018-08-19T17:34:58.967Z,4.28
2018-08-19T17:37:06.678Z,3.55
2018-08-19T17:39:22.324Z,5.53
2018-08-19T17:41:32.137Z,5.35
2018-08-19T17:43:43.296Z,3.70
2018-08-19T17:45:52.518Z,3.58
2018-08-19T17:47:58.292Z,2.80
2018-08-19T17:50:05.065Z,2.65
2018-08-19T17:52:15.089Z,3.45
2018-08-19T17:54:29.246Z,3.55
2018-08-19T17:56:34.492Z,2.83
2018-08-19T17:58:44.346Z,3.25
2018-08-19T18:00:52.564Z,3.05
2018-08-19T18:02:57.692Z,3.35
2018-08-19T18:05:04.693Z,2.83
2018-08-19T18:07:17.410Z,2.33
2018-08-19T18:09:26.966Z,3.08
2018-08-19T18:11:34.662Z,3.30
2018-08-19T18:13:41.273Z,5.10
2018-08-19T18:15:47.938Z,4.60
2018-08-19T18:18:01.144Z,4.62
2018-08-19T18:21:14.089Z,3.95
2018-08-19T18:23:26.178Z,6.42
2018-08-19T18:25:33.087Z,4.12
2018-08-19T18:27:43.189Z,8.83
2018-08-19T18:29:52.585Z,5.12
2018-08-19T18:32:01.959Z,6.95
2018-08-19T18:34:12.811Z,4.53
2018-08-19T18:36:21.982Z,6.95
2018-08-19T18:38:33.783Z,4.65
2018-08-19T18:40:41.782Z,6.83
2018-08-19T18:45:15.498Z,5.60
2018-08-19T18:47:22.307Z,5.55
2018-08-19T18:49:27.679Z,6.55
2018-08-19T18:51:33.574Z,7.37
2018-08-19T18:53:38.735Z,5.33
2018-08-19T18:55:51.079Z,6.25
2018-08-19T18:57:58.331Z,5.90
2018-08-19T19:00:03.413Z,6.58
2018-08-19T19:02:13.974Z,9.35
2018-08-19T19:04:23.377Z,6.65
2018-08-19T19:06:33.585Z,7.42
2018-08-19T19:08:40.142Z,6.75
2018-08-19T19:11:00.542Z,6.85
2018-08-19T19:13:22.391Z,6.50
2018-08-19T19:15:27.371Z,9.13
2018-08-19T19:17:39.582Z,6.45
2018-08-19T19:19:52.022Z,8.63
2018-08-19T19:22:01.509Z,7.28
2018-08-19T19:24:08.228Z,9.58
2018-08-19T19:26:12.769Z,7.72
2018-08-19T19:28:18.907Z,7.57
2018-08-19T19:30:28.356Z,8.03
2018-08-19T19:32:34.953Z,6.67
2018-08-19T19:34:43.062Z,7.78
2018-08-19T19:36:49.290Z,8.15
2018-08-19T19:39:01.836Z,8.60
2018-08-19T19:41:11.556Z,9.30
2018-08-19T19:43:21.100Z,8.45
2018-08-19T19:45:31.818Z,8.47
2018-08-19T19:47:38.110Z,9.40
2018-08-19T19:49:50.220Z,7.50
2018-08-19T19:51:57.424Z,10.65
2018-08-19T19:54:04.628Z,7.75
2018-08-19T19:56:13.983Z,8.30
2018-08-19T19:58:24.361Z,8.33
2018-08-19T20:00:36.870Z,7.07
2018-08-19T20:02:44.240Z,7.23
2018-08-19T20:04:52.517Z,8.93
2018-08-19T20:07:03.198Z,9.97
2018-08-19T20:09:11.392Z,7.58
2018-08-19T20:11:30.318Z,8.48
2018-08-19T20:13:35.246Z,6.97
2018-08-19T20:15:40.053Z,9.70
2018-08-19T20:17:45.723Z,8.17
2018-08-19T20:19:58.281Z,8.50
2018-08-19T20:22:03.314Z,8.80
2018-08-19T20:24:11.014Z,8.97
2018-08-19T20:26:15.338Z,8.87
2018-08-19T20:28:19.321Z,8.90
2018-08-19T20:30:26.249Z,9.50
2018-08-19T20:32:33.489Z,7.60
2018-08-19T20:34:45.047Z,9.20
2018-08-19T20:36:52.268Z,9.10
2018-08-19T20:39:08.590Z,9.13
2018-08-19T20:41:14.658Z,9.07
2018-08-19T20:43:20.800Z,8.57
2018-08-19T20:45:26.308Z,9.20
2018-08-19T20:47:32.796Z,10.17
2018-08-19T20:49:36.705Z,9.93
2018-08-19T20:51:42.254Z,8.20
2018-08-19T20:53:49.778Z,8.13
2018-08-19T20:55:55.285Z,8.97
2018-08-19T20:58:02.428Z,10.07
2018-08-19T21:00:11.710Z,9.63
2018-08-19T21:02:15.772Z,8.43
2018-08-19T21:04:21.923Z,10.00
2018-08-19T21:06:29.453Z,12.10
2018-08-19T21:08:33.313Z,8.67
2018-08-19T21:10:41.420Z,8.90
2018-08-19T21:12:45.700Z,10.20
2018-08-19T21:14:52.079Z,11.17
2018-08-19T21:17:02.474Z,9.70
2018-08-19T21:19:07.014Z,9.47
2018-08-19T21:21:10.880Z,9.30
2018-08-19T21:23:15.879Z,8.17
2018-08-19T21:25:27.551Z,7.97
2018-08-19T21:27:32.588Z,10.90
2018-08-19T21:29:39.447Z,9.17
2018-08-19T21:31:44.890Z,8.33
2018-08-19T21:33:50.627Z,8.13
2018-08-19T21:35:57.778Z,8.37
2018-08-19T21:38:05.310Z,8.60
2018-08-19T21:40:10.334Z,11.30
2018-08-19T21:42:14.995Z,8.93
2018-08-19T21:44:20.407Z,9.47
2018-08-19T21:46:25.026Z,9.03
2018-08-19T21:48:38.573Z,8.83
2018-08-19T21:50:46.296Z,11.37
2018-08-19T21:53:14.317Z,9.53
2018-08-19T21:55:19.285Z,9.10
2018-08-19T21:57:24.648Z,8.43
2018-08-19T21:59:30.275Z,9.50
2018-08-19T22:01:43.446Z,11.10
2018-08-19T22:03:51.495Z,10.20
2018-08-19T22:05:56.507Z,11.03
2018-08-19T22:08:02.620Z,8.00
2018-08-19T22:10:07.537Z,8.67
2018-08-19T22:12:15.923Z,12.27
2018-08-19T22:14:21.867Z,9.23
2018-08-19T22:16:26.559Z,9.47
2018-08-19T22:18:33.125Z,9.97
2018-08-19T22:20:40.529Z,7.87
2018-08-19T22:22:47.307Z,8.83
2018-08-19T22:24:51.770Z,8.80
2018-08-19T22:27:04.361Z,10.03
2018-08-19T22:29:26.395Z,9.73
2018-08-19T22:31:33.936Z,13.20
2018-08-19T22:33:40.291Z,9.50
2018-08-19T22:35:45.992Z,12.27
2018-08-19T22:37:54.072Z,11.43
2018-08-19T22:40:00.026Z,9.73
2018-08-19T22:42:05.722Z,9.30
2018-08-19T22:44:21.335Z,7.90
2018-08-19T22:46:32.532Z,8.60
2018-08-19T22:50:52.415Z,11.00
2018-08-19T22:52:56.251Z,10.33
2018-08-19T22:55:00.577Z,8.60
2018-08-19T22:57:07.819Z,12.77
2018-08-19T22:59:15.265Z,10.70
2018-08-19T23:01:24.310Z,8.57
2018-08-19T23:03:29.299Z,8.80
2018-08-19T23:05:34.908Z,13.97
2018-08-19T23:07:38.762Z,9.13
2018-08-19T23:09:48.060Z,10.03
2018-08-19T23:11:53.633Z,11.73
2018-08-19T23:14:13.673Z,7.50
2018-08-19T23:16:20.712Z,8.80
2018-08-19T23:18:29.441Z,9.63
2018-08-19T23:20:36.781Z,9.43
2018-08-19T23:22:42.091Z,9.33
2018-08-19T23:24:47.544Z,9.50
2018-08-19T23:27:09.129Z,9.67
2018-08-19T23:29:20.076Z,9.37
2018-08-19T23:31:26.140Z,11.53
2018-08-19T23:33:31.278Z,10.00
2018-08-19T23:35:36.766Z,10.70
2018-08-19T23:37:43.284Z,9.67
2018-08-19T23:39:47.924Z,10.00
2018-08-19T23:41:55.169Z,12.30
2018-08-19T23:44:02.252Z,13.40
2018-08-19T23:46:07.464Z,9.13
2018-08-19T23:48:12.471Z,8.93
2018-08-19T23:50:16.990Z,9.83
2018-08-19T23:52:22.062Z,9.73
2018-08-19T23:54:26.469Z,9.67
2018-08-19T23:56:31.867Z,10.70
2018-08-19T23:58:35.729Z,10.73
